Time;durP1;ratioP1;P1;durP2;ratioP2;P2;SDS_P1;SDS_P2;PMS_P1;PMS_P2;Temp;Humidity;BMP_temperature;BMP_pressure;BME280_temperature;BME280_humidity;BME280_pressure;Samples;Min_cycle;Max_cycle;Signal;HPM_P1;HPM_P2
2021/08/31 00:00:56;;;;;;;16.90;7.78;;;;;;;;;;4984975;28;20050;-54
2021/08/31 00:03:23;;;;;;;15.70;6.70;;;;;;;;;;4973646;28;20046;-51
2021/08/31 00:05:49;;;;;;;16.20;7.47;;;;;;;;;;5001567;28;20057;-51
2021/08/31 00:08:16;;;;;;;16.35;6.93;;;;;;;;;;4997326;28;20046;-53
2021/08/31 00:10:42;;;;;;;13.43;6.70;;;;;;;;;;4997275;28;20112;-55
2021/08/31 00:13:09;;;;;;;15.65;7.60;;;;;;;;;;4983680;28;20054;-51
2021/08/31 00:15:35;;;;;;;14.65;6.97;;;;;;;;;;5000247;28;20062;-54
2021/08/31 00:18:03;;;;;;;14.73;6.53;;;;;;;;;;4997371;28;20043;-52
2021/08/31 00:20:30;;;;;;;13.48;6.55;;;;;;;;;;5001678;28;20057;-50
2021/08/31 00:22:57;;;;;;;13.40;6.70;;;;;;;;;;4997526;28;20062;-49
2021/08/31 00:25:23;;;;;;;15.30;6.70;;;;;;;;;;4986595;28;20051;-54
2021/08/31 00:27:52;;;;;;;14.40;7.22;;;;;;;;;;4979217;28;20045;-51
2021/08/31 00:30:18;;;;;;;17.33;6.97;;;;;;;;;;5002641;28;20053;-54
2021/08/31 00:32:44;;;;;;;15.45;6.90;;;;;;;;;;4983976;28;20049;-51
2021/08/31 00:35:12;;;;;;;13.73;7.50;;;;;;;;;;4981602;28;20038;-49
2021/08/31 00:37:39;;;;;;;17.38;7.53;;;;;;;;;;4987984;28;20049;-53
2021/08/31 00:40:06;;;;;;;14.75;7.07;;;;;;;;;;4984103;28;20057;-49
2021/08/31 00:42:33;;;;;;;16.02;6.97;;;;;;;;;;4987328;28;20034;-50
2021/08/31 00:44:59;;;;;;;16.00;7.63;;;;;;;;;;4994417;28;20043;-54
2021/08/31 00:47:26;;;;;;;17.33;6.75;;;;;;;;;;5002436;28;20128;-52
2021/08/31 00:49:52;;;;;;;19.45;7.18;;;;;;;;;;4999934;28;20110;-49
2021/08/31 00:52:20;;;;;;;19.23;7.43;;;;;;;;;;5003999;28;20042;-54
2021/08/31 00:54:47;;;;;;;16.38;7.72;;;;;;;;;;4993094;28;20047;-54
2021/08/31 00:57:14;;;;;;;23.23;8.43;;;;;;;;;;4969109;28;20166;-51
2021/08/31 00:59:40;;;;;;;17.98;7.53;;;;;;;;;;4967566;28;20062;-50
2021/08/31 01:02:07;;;;;;;16.58;7.63;;;;;;;;;;4986845;28;20035;-54
2021/08/31 01:04:33;;;;;;;12.45;6.72;;;;;;;;;;4970317;28;20061;-51
2021/08/31 01:07:01;;;;;;;14.15;6.82;;;;;;;;;;4968869;28;20046;-53
2021/08/31 01:09:29;;;;;;;19.73;7.60;;;;;;;;;;4981394;28;20092;-49
2021/08/31 01:11:56;;;;;;;18.08;7.72;;;;;;;;;;4947801;28;20054;-55
2021/08/31 01:14:23;;;;;;;16.73;7.07;;;;;;;;;;4965831;28;20102;-50
2021/08/31 01:16:50;;;;;;;17.75;7.78;;;;;;;;;;4963279;28;20043;-53
2021/08/31 01:19:18;;;;;;;21.77;7.60;;;;;;;;;;4967463;28;20054;-51
2021/08/31 01:21:44;;;;;;;;;;;;;;;;;;4964130;28;20047;-53
2021/08/31 01:24:11;;;;;;;14.93;7.40;;;;;;;;;;4966221;28;19925;-52
2021/08/31 01:26:39;;;;;;;13.90;6.65;;;;;;;;;;4950984;28;20039;-53
2021/08/31 01:29:06;;;;;;;16.02;7.68;;;;;;;;;;4965453;28;20039;-51
2021/08/31 01:31:32;;;;;;;22.42;7.53;;;;;;;;;;4973119;28;20171;-52
2021/08/31 01:33:59;;;;;;;15.98;7.55;;;;;;;;;;4967942;28;20047;-53
2021/08/31 01:36:26;;;;;;;16.52;8.27;;;;;;;;;;4962782;28;20035;-51
2021/08/31 01:38:53;;;;;;;16.80;7.57;;;;;;;;;;4967171;28;20043;-53
2021/08/31 01:41:20;;;;;;;16.33;7.32;;;;;;;;;;4962898;28;20046;-54
2021/08/31 01:43:48;;;;;;;18.65;7.57;;;;;;;;;;4983435;28;20050;-52
2021/08/31 01:46:14;;;;;;;13.85;7.35;;;;;;;;;;4960381;28;20140;-54
2021/08/31 01:48:42;;;;;;;18.33;8.02;;;;;;;;;;4931256;28;20046;-51
2021/08/31 01:51:08;;;;;;;21.23;8.15;;;;;;;;;;4960205;28;20120;-49
2021/08/31 01:53:35;;;;;;;17.02;7.78;;;;;;;;;;4965079;28;20047;-54
2021/08/31 01:56:02;;;;;;;17.23;7.82;;;;;;;;;;4960133;28;20042;-51
2021/08/31 01:58:28;;;;;;;22.25;8.73;;;;;;;;;;4962841;28;20087;-51
2021/08/31 02:00:58;;;;;;;18.20;8.35;;;;;;;;;;4966943;28;20034;-52
2021/08/31 02:03:24;;;;;;;21.20;8.40;;;;;;;;;;4952859;28;20034;-52
2021/08/31 02:05:50;;;;;;;18.55;7.28;;;;;;;;;;4967739;28;20097;-51
2021/08/31 02:08:17;;;;;;;19.65;8.52;;;;;;;;;;4994604;28;20041;-53
2021/08/31 02:10:43;;;;;;;16.50;7.57;;;;;;;;;;4996351;28;20050;-49
2021/08/31 02:13:10;;;;;;;16.30;7.97;;;;;;;;;;4982250;28;20042;-52
2021/08/31 02:15:37;;;;;;;15.20;8.43;;;;;;;;;;5001623;28;20038;-50
2021/08/31 02:18:05;;;;;;;19.42;8.85;;;;;;;;;;4998690;28;20038;-53
2021/08/31 02:20:32;;;;;;;20.63;8.80;;;;;;;;;;5002176;28;20030;-50
2021/08/31 02:22:58;;;;;;;17.92;8.73;;;;;;;;;;4999472;28;20042;-52
2021/08/31 02:25:25;;;;;;;19.60;8.57;;;;;;;;;;5002413;28;20054;-51
2021/08/31 02:27:52;;;;;;;21.58;9.32;;;;;;;;;;4996903;28;20114;-48
2021/08/31 02:30:18;;;;;;;17.00;9.15;;;;;;;;;;4986706;28;20057;-51
2021/08/31 02:32:45;;;;;;;19.95;10.07;;;;;;;;;;4983931;28;20033;-50
2021/08/31 02:35:13;;;;;;;18.90;9.13;;;;;;;;;;5006097;28;20034;-53
2021/08/31 02:37:48;;;;;;;18.85;9.13;;;;;;;;;;5007114;28;20034;-48
2021/08/31 02:40:15;;;;;;;16.67;8.27;;;;;;;;;;4985562;28;20050;-49
2021/08/31 02:42:42;;;;;;;22.90;9.20;;;;;;;;;;4980749;28;20046;-51
2021/08/31 02:45:09;;;;;;;17.30;7.43;;;;;;;;;;4994968;28;20042;-54
2021/08/31 02:47:37;;;;;;;16.67;7.68;;;;;;;;;;4984446;28;20045;-52
2021/08/31 02:50:04;;;;;;;16.20;8.15;;;;;;;;;;4981642;28;20061;-52
2021/08/31 02:52:32;;;;;;;19.85;8.38;;;;;;;;;;4990441;28;20030;-51
2021/08/31 02:54:58;;;;;;;21.10;8.67;;;;;;;;;;4990736;28;20051;-51
2021/08/31 02:57:31;;;;;;;17.25;7.25;;;;;;;;;;5002084;28;20336;-51
2021/08/31 03:00:00;;;;;;;18.25;7.80;;;;;;;;;;4986758;28;20162;-51
2021/08/31 03:02:26;;;;;;;;;;;;;;;;;;4966487;28;20049;-48
2021/08/31 03:04:53;;;;;;;19.77;7.57;;;;;;;;;;4978772;28;19935;-52
2021/08/31 03:07:21;;;;;;;17.95;7.50;;;;;;;;;;4982929;28;20117;-50
2021/08/31 03:09:49;;;;;;;19.88;7.45;;;;;;;;;;4977390;28;20031;-51
2021/08/31 03:12:16;;;;;;;19.38;7.50;;;;;;;;;;4946239;28;20035;-54
2021/08/31 03:14:42;;;;;;;21.02;7.10;;;;;;;;;;4948286;28;20042;-51
2021/08/31 03:17:09;;;;;;;14.02;6.93;;;;;;;;;;4965298;28;20038;-49
2021/08/31 03:19:36;;;;;;;18.38;7.35;;;;;;;;;;4962610;28;20089;-52
2021/08/31 03:22:04;;;;;;;16.38;6.93;;;;;;;;;;4982331;28;20101;-49
2021/08/31 03:24:31;;;;;;;16.75;6.82;;;;;;;;;;4982779;28;20079;-49
2021/08/31 03:26:59;;;;;;;19.90;7.20;;;;;;;;;;4980734;28;20105;-50
2021/08/31 03:29:26;;;;;;;16.25;6.97;;;;;;;;;;4981711;28;20053;-51
2021/08/31 03:31:52;;;;;;;18.77;7.32;;;;;;;;;;4976633;28;20058;-52
2021/08/31 03:34:18;;;;;;;19.67;6.90;;;;;;;;;;4981917;28;20038;-52
2021/08/31 03:36:45;;;;;;;16.25;7.03;;;;;;;;;;4966760;28;20050;-50
2021/08/31 03:39:12;;;;;;;17.05;6.28;;;;;;;;;;4985085;28;20055;-55
2021/08/31 03:41:38;;;;;;;15.82;6.28;;;;;;;;;;4963160;28;20047;-51
2021/08/31 03:44:06;;;;;;;21.83;6.93;;;;;;;;;;4965855;28;20039;-52
2021/08/31 03:46:33;;;;;;;14.70;6.13;;;;;;;;;;4970854;28;20090;-53
2021/08/31 03:48:59;;;;;;;18.90;6.60;;;;;;;;;;4962892;28;20284;-50
2021/08/31 03:51:26;;;;;;;22.30;6.53;;;;;;;;;;4950262;28;20038;-53
2021/08/31 03:53:52;;;;;;;19.17;6.80;;;;;;;;;;4983589;28;20042;-52
2021/08/31 03:56:19;;;;;;;17.05;6.93;;;;;;;;;;4946110;28;20047;-51
2021/08/31 03:58:45;;;;;;;20.25;7.15;;;;;;;;;;4964338;28;20039;-53
2021/08/31 04:01:13;;;;;;;18.85;7.28;;;;;;;;;;4944307;28;20039;-52
2021/08/31 04:03:40;;;;;;;15.98;5.72;;;;;;;;;;4981182;28;20129;-51
2021/08/31 04:06:06;;;;;;;23.75;6.03;;;;;;;;;;4967173;28;20046;-53
2021/08/31 04:08:33;;;;;;;19.27;5.88;;;;;;;;;;4960635;28;20055;-51
2021/08/31 04:10:59;;;;;;;16.50;6.65;;;;;;;;;;4977613;28;20054;-50
2021/08/31 04:13:26;;;;;;;14.30;5.35;;;;;;;;;;4954258;28;20043;-52
2021/08/31 04:15:52;;;;;;;17.90;5.47;;;;;;;;;;4951785;28;20039;-54
2021/08/31 04:18:20;;;;;;;16.58;4.95;;;;;;;;;;4945681;28;20143;-53
2021/08/31 04:20:46;;;;;;;17.70;5.88;;;;;;;;;;4948023;28;20067;-52
2021/08/31 04:23:13;;;;;;;19.30;5.70;;;;;;;;;;4956997;28;20042;-55
2021/08/31 04:25:39;;;;;;;19.15;5.22;;;;;;;;;;4984504;28;20035;-52
2021/08/31 04:28:06;;;;;;;12.90;5.55;;;;;;;;;;4982398;28;20043;-53
2021/08/31 04:30:32;;;;;;;19.02;5.47;;;;;;;;;;4985348;28;20054;-53
2021/08/31 04:32:59;;;;;;;16.00;4.95;;;;;;;;;;4963225;28;20129;-49
2021/08/31 04:35:27;;;;;;;18.38;5.63;;;;;;;;;;4984073;28;20046;-53
2021/08/31 04:37:54;;;;;;;15.05;5.07;;;;;;;;;;4982405;28;20046;-52
2021/08/31 04:40:20;;;;;;;16.60;6.07;;;;;;;;;;4982696;28;20066;-51
2021/08/31 04:42:47;;;;;;;17.30;5.00;;;;;;;;;;4979427;28;20038;-51
2021/08/31 04:45:13;;;;;;;14.00;5.60;;;;;;;;;;4985005;28;20055;-50
2021/08/31 04:47:41;;;;;;;19.38;5.15;;;;;;;;;;4985121;28;20054;-52
2021/08/31 04:50:08;;;;;;;17.40;5.40;;;;;;;;;;4979816;28;20061;-54
2021/08/31 04:52:36;;;;;;;20.65;5.85;;;;;;;;;;4982175;28;20137;-50
2021/08/31 04:55:02;;;;;;;18.07;5.70;;;;;;;;;;4959609;28;20050;-53
2021/08/31 04:57:29;;;;;;;19.73;5.30;;;;;;;;;;4984482;28;20338;-53
2021/08/31 04:59:55;;;;;;;22.00;6.30;;;;;;;;;;4968891;28;20054;-55
2021/08/31 05:02:22;;;;;;;19.25;5.72;;;;;;;;;;4967501;28;20047;-55
2021/08/31 05:04:48;;;;;;;20.73;6.45;;;;;;;;;;4989728;28;20115;-53
2021/08/31 05:07:14;;;;;;;16.60;6.25;;;;;;;;;;5005094;28;20127;-51
2021/08/31 05:09:42;;;;;;;14.85;6.25;;;;;;;;;;4986270;28;20049;-54
2021/08/31 05:12:09;;;;;;;21.98;5.50;;;;;;;;;;4999411;28;20037;-53
2021/08/31 05:14:36;;;;;;;14.63;5.47;;;;;;;;;;4979963;28;20049;-55
2021/08/31 05:17:02;;;;;;;18.40;5.88;;;;;;;;;;4978169;28;20046;-54
2021/08/31 05:19:29;;;;;;;26.80;5.97;;;;;;;;;;4996331;28;20050;-52
2021/08/31 05:21:55;;;;;;;20.98;6.18;;;;;;;;;;4983476;28;20061;-54
2021/08/31 05:24:22;;;;;;;20.58;6.38;;;;;;;;;;4979408;28;20085;-53
2021/08/31 05:26:50;;;;;;;20.02;6.15;;;;;;;;;;4979837;28;20042;-53
2021/08/31 05:29:16;;;;;;;19.30;6.50;;;;;;;;;;4981354;28;20069;-51
2021/08/31 05:31:44;;;;;;;19.58;5.93;;;;;;;;;;4997513;28;20053;-52
2021/08/31 05:34:10;;;;;;;16.65;5.72;;;;;;;;;;5001812;28;20049;-53
2021/08/31 05:36:36;;;;;;;14.68;5.55;;;;;;;;;;4975590;28;20061;-50
2021/08/31 05:39:05;;;;;;;16.50;5.63;;;;;;;;;;4981217;28;20031;-56
2021/08/31 05:41:32;;;;;;;23.55;5.40;;;;;;;;;;4972532;28;20030;-50
2021/08/31 05:44:00;;;;;;;15.35;6.15;;;;;;;;;;4997631;28;20042;-55
2021/08/31 05:46:26;;;;;;;19.87;6.53;;;;;;;;;;4998900;28;20046;-55
2021/08/31 05:48:56;;;;;;;16.95;6.00;;;;;;;;;;4969589;28;20257;-54
2021/08/31 05:51:23;;;;;;;15.77;6.25;;;;;;;;;;4977717;28;20035;-51
2021/08/31 05:53:49;;;;;;;18.83;6.30;;;;;;;;;;4998083;28;20042;-49
2021/08/31 05:56:16;;;;;;;21.17;5.93;;;;;;;;;;4976347;28;20039;-53
2021/08/31 05:58:43;;;;;;;19.50;5.80;;;;;;;;;;4979308;28;20054;-51
2021/08/31 06:01:11;;;;;;;18.60;5.50;;;;;;;;;;4976774;28;20062;-51
2021/08/31 06:03:38;;;;;;;21.23;5.37;;;;;;;;;;4977832;28;20046;-52
2021/08/31 06:06:04;;;;;;;15.32;5.07;;;;;;;;;;4975490;28;20050;-52
2021/08/31 06:08:33;;;;;;;20.17;5.47;;;;;;;;;;4975006;28;20043;-51
2021/08/31 06:11:00;;;;;;;;;;;;;;;;;;4977193;28;20054;-49
2021/08/31 06:13:27;;;;;;;14.27;5.03;;;;;;;;;;4972983;28;19938;-52
2021/08/31 06:15:53;;;;;;;15.35;5.10;;;;;;;;;;4964314;28;20087;-52
2021/08/31 06:18:23;;;;;;;18.75;5.18;;;;;;;;;;4960034;28;20035;-54
2021/08/31 06:20:50;;;;;;;21.55;5.40;;;;;;;;;;4963027;28;20051;-54
2021/08/31 06:23:17;;;;;;;11.60;4.28;;;;;;;;;;4959725;28;20051;-53
2021/08/31 06:25:47;;;;;;;16.67;5.35;;;;;;;;;;4962790;28;20054;-52
2021/08/31 06:28:14;;;;;;;16.55;5.07;;;;;;;;;;4959108;28;20031;-55
2021/08/31 06:30:40;;;;;;;14.07;4.57;;;;;;;;;;4962785;28;20051;-54
2021/08/31 06:33:07;;;;;;;15.18;4.90;;;;;;;;;;4969014;28;20034;-51
2021/08/31 06:35:35;;;;;;;13.68;4.75;;;;;;;;;;4983405;28;20043;-55
2021/08/31 06:38:01;;;;;;;16.07;4.97;;;;;;;;;;4977578;28;20043;-55
2021/08/31 06:40:28;;;;;;;20.98;4.70;;;;;;;;;;4982773;28;20046;-56
2021/08/31 06:42:54;;;;;;;14.98;4.78;;;;;;;;;;4975048;28;20051;-56
2021/08/31 06:45:21;;;;;;;13.65;4.85;;;;;;;;;;4965662;28;20039;-54
2021/08/31 06:47:47;;;;;;;15.48;4.85;;;;;;;;;;4961492;28;20058;-53
2021/08/31 06:50:16;;;;;;;16.00;4.45;;;;;;;;;;4964145;28;20055;-56
2021/08/31 06:52:44;;;;;;;15.38;4.63;;;;;;;;;;4959508;28;20043;-56
2021/08/31 06:55:11;;;;;;;19.77;4.38;;;;;;;;;;4973163;28;20039;-50
2021/08/31 06:57:38;;;;;;;12.05;4.22;;;;;;;;;;4984208;28;20054;-57
2021/08/31 07:00:05;;;;;;;15.18;4.15;;;;;;;;;;4979788;28;20057;-55
2021/08/31 07:02:31;;;;;;;14.27;4.57;;;;;;;;;;4982508;28;20039;-55
2021/08/31 07:04:58;;;;;;;23.73;4.95;;;;;;;;;;4996207;28;20078;-53
2021/08/31 07:07:26;;;;;;;14.90;4.40;;;;;;;;;;4985631;28;20054;-55
2021/08/31 07:09:53;;;;;;;20.20;5.40;;;;;;;;;;4994184;28;20042;-57
2021/08/31 07:12:21;;;;;;;17.33;4.55;;;;;;;;;;4984614;28;20143;-53
2021/08/31 07:14:47;;;;;;;16.13;4.60;;;;;;;;;;4971499;28;20086;-54
2021/08/31 07:17:14;;;;;;;18.35;4.97;;;;;;;;;;4967444;28;20054;-54
2021/08/31 07:19:41;;;;;;;14.13;4.20;;;;;;;;;;4980119;28;20127;-55
2021/08/31 07:22:07;;;;;;;16.58;3.85;;;;;;;;;;5007633;28;20037;-50
2021/08/31 07:24:34;;;;;;;14.65;3.97;;;;;;;;;;5014722;28;20083;-56
2021/08/31 07:27:02;;;;;;;14.45;4.30;;;;;;;;;;4984359;28;20042;-56
2021/08/31 07:29:28;;;;;;;10.35;3.55;;;;;;;;;;5002038;28;20034;-55
2021/08/31 07:31:55;;;;;;;12.32;4.00;;;;;;;;;;5005621;28;20042;-55
2021/08/31 07:34:21;;;;;;;13.40;3.85;;;;;;;;;;5002831;28;20037;-54
2021/08/31 07:36:48;;;;;;;19.40;4.10;;;;;;;;;;4983649;28;20125;-53
2021/08/31 07:39:15;;;;;;;12.02;3.60;;;;;;;;;;4965218;28;20031;-56
2021/08/31 07:41:41;;;;;;;10.75;4.28;;;;;;;;;;4997667;28;20034;-55
2021/08/31 07:44:09;;;;;;;12.88;4.30;;;;;;;;;;5003816;28;20042;-52
2021/08/31 07:46:35;;;;;;;13.63;3.88;;;;;;;;;;4979091;28;20046;-49
2021/08/31 07:49:02;;;;;;;10.82;4.05;;;;;;;;;;4975789;28;20116;-54
2021/08/31 07:51:29;;;;;;;11.55;4.35;;;;;;;;;;4992088;28;20053;-57
2021/08/31 07:53:56;;;;;;;13.45;3.85;;;;;;;;;;5022029;28;20065;-54
2021/08/31 07:56:22;;;;;;;15.38;4.03;;;;;;;;;;4982085;28;20057;-57
2021/08/31 07:58:49;;;;;;;11.30;3.67;;;;;;;;;;4997880;28;20030;-57
2021/08/31 08:01:17;;;;;;;10.38;3.75;;;;;;;;;;4987618;28;20053;-54
2021/08/31 08:03:43;;;;;;;16.10;4.18;;;;;;;;;;5021072;28;20045;-52
2021/08/31 08:06:09;;;;;;;11.50;4.43;;;;;;;;;;5000171;28;20042;-53
2021/08/31 08:08:36;;;;;;;11.88;3.30;;;;;;;;;;5004011;28;20041;-54
2021/08/31 08:11:03;;;;;;;12.38;3.70;;;;;;;;;;4991199;28;20060;-56
2021/08/31 08:13:31;;;;;;;13.40;3.83;;;;;;;;;;5001933;28;20042;-54
2021/08/31 08:15:57;;;;;;;11.65;3.50;;;;;;;;;;5001279;28;20030;-55
2021/08/31 08:18:26;;;;;;;12.15;4.03;;;;;;;;;;5022845;28;20038;-52
2021/08/31 08:20:52;;;;;;;10.85;3.50;;;;;;;;;;5005330;28;20046;-55
2021/08/31 08:23:19;;;;;;;14.60;4.50;;;;;;;;;;4978468;28;20109;-55
2021/08/31 08:25:45;;;;;;;13.25;4.00;;;;;;;;;;4981204;28;20129;-54
2021/08/31 08:28:13;;;;;;;13.15;4.25;;;;;;;;;;4994666;28;20038;-54
2021/08/31 08:30:39;;;;;;;10.35;3.53;;;;;;;;;;5004130;28;20049;-53
2021/08/31 08:33:06;;;;;;;12.35;3.67;;;;;;;;;;4999391;28;20103;-54
2021/08/31 08:35:34;;;;;;;9.15;4.05;;;;;;;;;;5018102;28;20069;-55
2021/08/31 08:38:01;;;;;;;13.85;4.07;;;;;;;;;;4997609;28;20119;-52
2021/08/31 08:40:28;;;;;;;12.63;4.40;;;;;;;;;;5002902;28;20115;-56
2021/08/31 08:42:56;;;;;;;11.18;3.63;;;;;;;;;;4984824;28;20137;-52
2021/08/31 08:45:22;;;;;;;11.52;3.95;;;;;;;;;;4981509;28;20094;-55
2021/08/31 08:47:50;;;;;;;11.13;3.22;;;;;;;;;;4963543;28;20046;-53
2021/08/31 08:50:17;;;;;;;13.60;4.07;;;;;;;;;;4980853;28;20097;-55
2021/08/31 08:52:45;;;;;;;10.55;3.30;;;;;;;;;;4982738;28;20135;-53
2021/08/31 08:55:12;;;;;;;11.50;3.70;;;;;;;;;;5005559;28;20041;-55
2021/08/31 08:57:52;;;;;;;15.43;3.80;;;;;;;;;;5002725;28;20049;-54
2021/08/31 09:00:20;;;;;;;14.48;3.70;;;;;;;;;;4987096;28;20065;-52
2021/08/31 09:02:46;;;;;;;15.23;3.80;;;;;;;;;;4984787;28;20038;-57
2021/08/31 09:05:14;;;;;;;13.43;3.17;;;;;;;;;;4965548;28;20043;-55
2021/08/31 09:07:41;;;;;;;12.82;3.58;;;;;;;;;;4968153;28;20053;-52
2021/08/31 09:10:14;;;;;;;11.18;4.13;;;;;;;;;;4978138;28;20102;-52
2021/08/31 09:12:41;;;;;;;15.85;4.55;;;;;;;;;;4985818;28;20043;-53
2021/08/31 09:15:22;;;;;;;12.60;3.70;;;;;;;;;;4968441;28;20054;-52
2021/08/31 09:18:07;;;;;;;12.30;3.97;;;;;;;;;;4983603;28;20058;-52
2021/08/31 09:20:34;;;;;;;11.52;3.70;;;;;;;;;;4980489;28;20039;-57
2021/08/31 09:23:01;;;;;;;14.80;4.50;;;;;;;;;;4983101;28;20042;-57
2021/08/31 09:25:33;;;;;;;9.93;4.13;;;;;;;;;;4981363;28;20134;-54
2021/08/31 09:28:02;;;;;;;8.00;3.63;;;;;;;;;;4983838;28;20034;-55
2021/08/31 09:30:30;;;;;;;12.07;3.85;;;;;;;;;;4979861;28;20125;-52
2021/08/31 09:33:01;;;;;;;13.23;3.60;;;;;;;;;;4982900;28;20031;-54
2021/08/31 09:35:30;;;;;;;17.60;3.65;;;;;;;;;;4971755;28;20030;-56
2021/08/31 09:37:58;;;;;;;12.25;3.55;;;;;;;;;;4982260;28;20133;-53
2021/08/31 09:40:27;;;;;;;10.37;3.30;;;;;;;;;;4979660;28;20041;-57
2021/08/31 09:42:57;;;;;;;9.23;3.72;;;;;;;;;;4982716;28;20057;-55
2021/08/31 09:45:25;;;;;;;12.27;4.07;;;;;;;;;;4980149;28;20018;-57
2021/08/31 09:47:52;;;;;;;9.25;3.42;;;;;;;;;;4983892;28;20050;-57
2021/08/31 09:50:28;;;;;;;10.13;3.55;;;;;;;;;;4977083;28;20218;-56
2021/08/31 09:53:00;;;;;;;12.65;3.38;;;;;;;;;;4979643;28;20049;-55
2021/08/31 09:55:26;;;;;;;11.07;3.40;;;;;;;;;;4968537;28;20042;-56
2021/08/31 09:58:06;;;;;;;10.13;3.42;;;;;;;;;;4965173;28;20095;-55
2021/08/31 10:00:32;;;;;;;14.82;3.60;;;;;;;;;;4980909;28;20135;-56
2021/08/31 10:02:59;;;;;;;12.07;3.90;;;;;;;;;;4985562;28;20170;-53
2021/08/31 10:05:26;;;;;;;9.60;3.47;;;;;;;;;;4996506;28;20048;-57
2021/08/31 10:07:53;;;;;;;12.90;3.75;;;;;;;;;;4982103;28;20038;-54
2021/08/31 10:10:23;;;;;;;13.32;3.72;;;;;;;;;;4982631;28;20046;-52
2021/08/31 10:12:51;;;;;;;10.85;2.97;;;;;;;;;;4964433;28;20045;-58
2021/08/31 10:15:21;;;;;;;13.77;3.63;;;;;;;;;;4984742;28;20054;-57
2021/08/31 10:17:48;;;;;;;11.35;3.72;;;;;;;;;;4981074;28;20046;-57
2021/08/31 10:20:17;;;;;;;9.85;3.58;;;;;;;;;;4986618;28;20054;-56
2021/08/31 10:22:44;;;;;;;10.57;3.60;;;;;;;;;;4966548;28;20047;-57
2021/08/31 10:25:11;;;;;;;13.82;3.50;;;;;;;;;;4967658;28;20038;-54
2021/08/31 10:27:38;;;;;;;14.98;3.72;;;;;;;;;;4965649;28;20050;-57
2021/08/31 10:30:29;;;;;;;10.82;3.25;;;;;;;;;;4967764;28;20046;-58
2021/08/31 10:32:58;;;;;;;9.38;3.58;;;;;;;;;;4978193;28;20047;-52
2021/08/31 10:35:44;;;;;;;10.45;3.40;;;;;;;;;;5007318;28;20038;-56
2021/08/31 10:38:13;;;;;;;15.25;3.35;;;;;;;;;;5000962;28;20037;-57
2021/08/31 10:40:40;;;;;;;11.13;3.55;;;;;;;;;;5023344;28;20045;-51
2021/08/31 10:43:08;;;;;;;9.63;3.20;;;;;;;;;;5000550;28;20048;-57
2021/08/31 10:45:35;;;;;;;9.27;3.88;;;;;;;;;;5005364;28;20065;-55
2021/08/31 10:48:23;;;;;;;12.63;3.88;;;;;;;;;;4991384;28;20050;-52
2021/08/31 10:50:50;;;;;;;17.27;3.60;;;;;;;;;;4984880;28;20030;-55
2021/08/31 10:53:37;;;;;;;10.65;3.55;;;;;;;;;;4983049;28;20056;-55
2021/08/31 10:56:18;;;;;;;10.18;3.25;;;;;;;;;;4978393;28;20054;-57
2021/08/31 10:58:51;;;;;;;13.55;3.95;;;;;;;;;;4976163;28;20061;-53
2021/08/31 11:01:18;;;;;;;16.35;3.47;;;;;;;;;;4986140;28;20062;-57
2021/08/31 11:03:47;;;;;;;12.60;4.05;;;;;;;;;;4970121;28;20089;-56
2021/08/31 11:06:18;;;;;;;13.60;3.88;;;;;;;;;;4966085;28;20125;-57
2021/08/31 11:09:02;;;;;;;11.63;3.95;;;;;;;;;;4959872;28;20035;-57
2021/08/31 11:11:29;;;;;;;15.40;3.15;;;;;;;;;;4979678;28;20064;-57
2021/08/31 11:13:55;;;;;;;8.48;3.30;;;;;;;;;;4972821;28;20050;-54
2021/08/31 11:16:27;;;;;;;12.73;3.22;;;;;;;;;;4983747;28;20042;-53
2021/08/31 11:18:55;;;;;;;13.00;2.92;;;;;;;;;;4971853;28;20046;-54
2021/08/31 11:21:22;;;;;;;15.48;4.15;;;;;;;;;;4962896;28;20081;-55
2021/08/31 11:23:49;;;;;;;17.83;4.07;;;;;;;;;;4963879;28;20038;-58
2021/08/31 11:26:23;;;;;;;15.65;3.65;;;;;;;;;;4965162;28;20035;-56
2021/08/31 11:28:51;;;;;;;12.43;4.07;;;;;;;;;;4963108;28;20093;-57
2021/08/31 11:31:22;;;;;;;13.85;3.70;;;;;;;;;;4981982;28;20141;-55
2021/08/31 11:33:51;;;;;;;13.00;3.50;;;;;;;;;;4980312;28;20137;-58
2021/08/31 11:36:20;;;;;;;9.90;3.63;;;;;;;;;;4995307;28;20094;-56
2021/08/31 11:38:47;;;;;;;9.02;2.88;;;;;;;;;;5001884;28;20038;-54
2021/08/31 11:41:15;;;;;;;14.90;3.13;;;;;;;;;;4971344;28;20117;-57
2021/08/31 11:43:41;;;;;;;8.65;3.53;;;;;;;;;;4980710;28;20038;-58
2021/08/31 11:46:08;;;;;;;9.27;3.30;;;;;;;;;;4980225;28;20046;-57
2021/08/31 11:48:35;;;;;;;9.55;3.30;;;;;;;;;;4981552;28;20116;-58
2021/08/31 11:51:02;;;;;;;12.48;4.13;;;;;;;;;;4980864;28;20035;-56
2021/08/31 11:53:31;;;;;;;12.45;3.28;;;;;;;;;;4963105;28;20039;-57
2021/08/31 11:55:58;;;;;;;12.80;3.63;;;;;;;;;;4974473;28;20042;-57
2021/08/31 11:58:27;;;;;;;10.30;3.45;;;;;;;;;;4983154;28;20049;-57
2021/08/31 12:00:54;;;;;;;10.73;4.10;;;;;;;;;;4982317;28;20046;-55
2021/08/31 12:03:22;;;;;;;10.82;3.85;;;;;;;;;;4982130;28;20038;-54
2021/08/31 12:05:49;;;;;;;12.85;3.60;;;;;;;;;;4978894;28;20117;-54
2021/08/31 12:08:27;;;;;;;9.93;2.87;;;;;;;;;;4984200;28;20053;-56
2021/08/31 12:10:55;;;;;;;12.30;3.40;;;;;;;;;;4982305;28;20052;-53
2021/08/31 12:13:22;;;;;;;7.93;3.17;;;;;;;;;;4983743;28;20043;-56
2021/08/31 12:15:49;;;;;;;10.50;3.80;;;;;;;;;;4976936;28;20137;-56
2021/08/31 12:18:18;;;;;;;16.42;3.70;;;;;;;;;;4982489;28;20050;-54
2021/08/31 12:20:45;;;;;;;15.77;4.05;;;;;;;;;;4978983;28;20136;-53
2021/08/31 12:23:13;;;;;;;8.13;3.28;;;;;;;;;;4982296;28;20049;-56
2021/08/31 12:25:40;;;;;;;9.77;3.63;;;;;;;;;;4980013;28;20053;-56
2021/08/31 12:28:08;;;;;;;15.82;3.95;;;;;;;;;;4984670;28;20053;-55
2021/08/31 12:30:35;;;;;;;12.20;2.75;;;;;;;;;;4983599;28;20108;-57
2021/08/31 12:33:02;;;;;;;9.73;3.90;;;;;;;;;;4983998;28;20097;-57
2021/08/31 12:35:30;;;;;;;11.13;3.10;;;;;;;;;;4988208;28;20042;-56
2021/08/31 12:38:04;;;;;;;9.93;3.17;;;;;;;;;;4983814;28;20039;-56
2021/08/31 12:40:30;;;;;;;14.57;3.65;;;;;;;;;;4988032;28;20040;-56
2021/08/31 12:43:04;;;;;;;11.15;3.80;;;;;;;;;;4982313;28;20049;-56
2021/08/31 12:45:33;;;;;;;12.15;4.03;;;;;;;;;;5004798;28;20042;-57
2021/08/31 12:48:00;;;;;;;13.73;3.50;;;;;;;;;;4982623;28;20061;-57
2021/08/31 12:50:27;;;;;;;11.20;3.53;;;;;;;;;;4987294;28;20078;-56
2021/08/31 12:53:01;;;;;;;10.63;3.67;;;;;;;;;;4981985;28;20116;-57
2021/08/31 12:55:29;;;;;;;14.23;3.78;;;;;;;;;;4988031;28;20046;-55
2021/08/31 12:58:14;;;;;;;9.40;3.22;;;;;;;;;;4979476;28;20050;-55
2021/08/31 13:00:42;;;;;;;13.27;3.28;;;;;;;;;;4985778;28;20039;-57
2021/08/31 13:03:09;;;;;;;12.98;3.30;;;;;;;;;;4981886;28;20042;-57
2021/08/31 13:05:35;;;;;;;11.40;4.15;;;;;;;;;;4987053;28;20049;-57
2021/08/31 13:08:06;;;;;;;13.25;4.13;;;;;;;;;;4983520;28;20038;-57
2021/08/31 13:10:34;;;;;;;11.40;3.05;;;;;;;;;;4982814;28;20040;-55
2021/08/31 13:13:03;;;;;;;8.82;3.15;;;;;;;;;;4993193;28;20043;-56
2021/08/31 13:15:29;;;;;;;13.48;3.30;;;;;;;;;;4984547;28;20057;-58
2021/08/31 13:18:00;;;;;;;12.85;3.38;;;;;;;;;;4983229;28;20091;-58
2021/08/31 13:20:26;;;;;;;13.38;3.53;;;;;;;;;;4983394;28;20050;-58
2021/08/31 13:22:53;;;;;;;11.35;3.20;;;;;;;;;;4983282;28;20054;-56
2021/08/31 13:25:19;;;;;;;9.07;3.30;;;;;;;;;;4986697;28;20054;-55
2021/08/31 13:27:46;;;;;;;13.05;3.60;;;;;;;;;;4986004;28;20125;-58
2021/08/31 13:30:13;;;;;;;12.02;3.17;;;;;;;;;;5000815;28;20128;-55
2021/08/31 13:32:39;;;;;;;9.93;3.22;;;;;;;;;;4987010;28;20054;-57
2021/08/31 13:35:08;;;;;;;12.52;3.10;;;;;;;;;;4984026;28;20042;-57
2021/08/31 13:37:35;;;;;;;11.07;3.30;;;;;;;;;;4986790;28;20045;-58
2021/08/31 13:40:05;;;;;;;10.25;3.33;;;;;;;;;;4982524;28;20050;-56
2021/08/31 13:42:32;;;;;;;13.00;3.30;;;;;;;;;;4984765;28;20058;-57
2021/08/31 13:44:59;;;;;;;11.18;3.83;;;;;;;;;;4999404;28;20042;-58
2021/08/31 13:47:25;;;;;;;12.55;3.28;;;;;;;;;;4987460;28;20072;-58
2021/08/31 13:49:51;;;;;;;12.68;3.08;;;;;;;;;;4976268;28;20050;-59
2021/08/31 13:52:19;;;;;;;9.65;3.20;;;;;;;;;;4968312;28;20038;-58
2021/08/31 13:54:46;;;;;;;15.00;3.20;;;;;;;;;;4968998;28;20046;-57
2021/08/31 13:57:12;;;;;;;11.02;2.92;;;;;;;;;;5004956;28;20053;-57
2021/08/31 13:59:39;;;;;;;13.05;3.15;;;;;;;;;;4980618;28;20038;-57
2021/08/31 14:02:05;;;;;;;12.50;3.05;;;;;;;;;;4983515;28;20027;-58
2021/08/31 14:04:32;;;;;;;12.38;3.40;;;;;;;;;;4995818;28;20044;-56
2021/08/31 14:06:58;;;;;;;15.13;2.97;;;;;;;;;;5006810;28;20112;-56
2021/08/31 14:09:27;;;;;;;15.52;2.97;;;;;;;;;;5024766;28;20073;-57
2021/08/31 14:11:54;;;;;;;12.70;2.90;;;;;;;;;;4984438;28;20034;-57
2021/08/31 14:14:20;;;;;;;14.02;2.55;;;;;;;;;;4987124;28;20132;-58
2021/08/31 14:16:46;;;;;;;14.27;2.97;;;;;;;;;;4979525;28;20128;-58
2021/08/31 14:19:13;;;;;;;12.00;2.70;;;;;;;;;;4985157;28;20076;-55
2021/08/31 14:21:40;;;;;;;14.40;2.20;;;;;;;;;;4982973;28;20049;-58
2021/08/31 14:24:06;;;;;;;15.57;3.05;;;;;;;;;;4971180;28;20053;-57
2021/08/31 14:26:34;;;;;;;19.60;3.05;;;;;;;;;;4990707;28;20034;-57
2021/08/31 14:29:02;;;;;;;12.23;2.83;;;;;;;;;;5005452;28;20038;-56
2021/08/31 14:31:29;;;;;;;9.30;2.75;;;;;;;;;;5018712;28;20057;-58
2021/08/31 14:33:56;;;;;;;10.80;2.70;;;;;;;;;;5004204;28;20056;-58